Arlington, Georgia
Current Conditions -  °F | °C
As of 4:55 PM on Monday 22 Dec 2014 (Local Time) from KBIJ Reporting Station
Moderate Rain Moderate Rain  
Wind Chill: 55°   Ceiling: 100
Heat Index: 55°   Visibility: 0.5mi
Dew Point: 55°   Wind: 5mph
Humidity: 100%   Direction: 80°E
Pressure: 29.87"   Gusts: NA
Location:  31.44°N, 84.72°W
Report Text: KBIJ 222155Z AUTO 08004KT 1/2SM RA OVC001 13/13 A2987 RMK AO2
Loading
Personal Weather Stations






























Interactive Weather Map New forecast layout! Learn more

10-Day Weather Forecast

Advertisements
Track Severe Weather on mobile